createdAt,value
2018-07-23T00:00:19.137Z,49.75
2018-07-23T00:02:48.473Z,50.07
2018-07-23T00:05:17.748Z,49.83
2018-07-23T00:07:46.982Z,49.97
2018-07-23T00:10:16.470Z,49.81
2018-07-23T00:12:45.786Z,50.37
2018-07-23T00:15:15.146Z,50.45
2018-07-23T00:17:44.381Z,50.50
2018-07-23T00:20:13.694Z,50.09
2018-07-23T00:22:43.097Z,50.07
2018-07-23T00:25:12.395Z,49.99
2018-07-23T00:27:41.841Z,49.79
2018-07-23T00:30:11.170Z,49.60
2018-07-23T00:32:40.510Z,49.41
2018-07-23T00:35:10.828Z,49.74
2018-07-23T00:37:40.218Z,49.59
2018-07-23T00:40:09.737Z,49.14
2018-07-23T00:42:39.140Z,49.75
2018-07-23T00:45:09.022Z,49.56
2018-07-23T00:47:38.609Z,50.31
2018-07-23T00:50:07.938Z,50.02
2018-07-23T00:52:37.701Z,49.46
2018-07-23T00:55:06.940Z,49.36
2018-07-23T00:57:36.194Z,49.31
2018-07-23T01:00:05.545Z,49.82
2018-07-23T01:02:34.982Z,49.66
2018-07-23T01:05:04.242Z,49.57
2018-07-23T01:07:33.505Z,49.90
2018-07-23T01:10:02.741Z,49.78
2018-07-23T01:12:33.159Z,49.59
2018-07-23T01:15:02.499Z,49.62
2018-07-23T01:17:31.834Z,50.28
2018-07-23T01:20:01.235Z,49.99
2018-07-23T01:22:30.631Z,50.20
2018-07-23T01:24:59.966Z,49.56
2018-07-23T01:27:29.175Z,49.36
2018-07-23T01:29:58.402Z,49.43
2018-07-23T01:32:27.685Z,49.51
2018-07-23T01:34:57.031Z,49.75
2018-07-23T01:37:26.362Z,49.57
2018-07-23T01:39:55.713Z,49.84
2018-07-23T01:42:24.965Z,49.73
2018-07-23T01:44:54.314Z,49.60
2018-07-23T01:47:23.620Z,49.91
2018-07-23T01:49:53.012Z,49.97
2018-07-23T01:52:22.294Z,50.39
2018-07-23T01:54:51.749Z,49.68
2018-07-23T01:57:21.008Z,50.19
2018-07-23T01:59:50.331Z,50.29
2018-07-23T02:02:19.603Z,50.24
2018-07-23T02:04:49.333Z,50.44
2018-07-23T02:07:25.292Z,50.19
2018-07-23T02:09:54.595Z,50.81
2018-07-23T02:12:23.833Z,50.89
2018-07-23T02:14:53.081Z,51.30
2018-07-23T02:17:22.370Z,51.38
2018-07-23T02:19:51.715Z,51.37
2018-07-23T02:22:20.990Z,51.56
2018-07-23T02:24:50.312Z,51.64
2018-07-23T02:27:19.587Z,51.62
2018-07-23T02:29:48.913Z,51.76
2018-07-23T02:32:18.181Z,52.11
2018-07-23T02:34:47.158Z,51.71
2018-07-23T02:37:16.292Z,52.06
2018-07-23T02:39:45.258Z,51.84
2018-07-23T02:42:14.212Z,52.52
2018-07-23T02:44:43.250Z,52.54
2018-07-23T02:47:12.660Z,52.50
2018-07-23T02:49:41.650Z,52.44
2018-07-23T02:52:10.572Z,52.16
2018-07-23T02:54:39.549Z,52.29
2018-07-23T02:57:08.497Z,52.12
2018-07-23T02:59:37.518Z,52.46
2018-07-23T03:02:06.431Z,52.21
2018-07-23T03:04:35.410Z,51.95
2018-07-23T03:07:04.442Z,52.74
2018-07-23T03:09:33.450Z,52.67
2018-07-23T03:12:02.392Z,52.25
2018-07-23T03:14:31.373Z,53.00
2018-07-23T03:17:00.302Z,52.84
2018-07-23T03:19:29.353Z,53.44
2018-07-23T03:21:58.337Z,53.17
2018-07-23T03:24:27.340Z,53.26
2018-07-23T03:26:56.459Z,53.32
2018-07-23T03:29:25.759Z,53.28
2018-07-23T03:31:55.031Z,52.84
2018-07-23T03:34:24.284Z,53.66
2018-07-23T03:36:53.546Z,53.42
2018-07-23T03:39:22.865Z,53.56
2018-07-23T03:41:52.149Z,54.48
2018-07-23T03:44:21.573Z,54.22
2018-07-23T03:46:50.845Z,54.75
2018-07-23T03:49:20.065Z,54.38
2018-07-23T03:51:49.348Z,54.15
2018-07-23T03:54:18.762Z,54.21
2018-07-23T03:56:48.058Z,54.12
2018-07-23T03:59:17.367Z,53.75
2018-07-23T04:01:46.710Z,54.65
2018-07-23T04:04:17.758Z,54.28
2018-07-23T04:06:48.466Z,53.52
2018-07-23T04:09:18.171Z,53.52
2018-07-23T04:11:47.529Z,54.04
2018-07-23T04:14:16.999Z,53.63
2018-07-23T04:16:46.197Z,53.64
2018-07-23T04:19:16.062Z,53.60
2018-07-23T04:21:45.681Z,53.67
2018-07-23T04:24:15.694Z,54.32
2018-07-23T04:26:45.065Z,54.09
2018-07-23T04:29:14.408Z,53.54
2018-07-23T04:31:43.670Z,54.20
2018-07-23T04:34:13.094Z,53.67
2018-07-23T04:36:42.470Z,53.48
2018-07-23T04:39:11.700Z,53.37
2018-07-23T04:41:41.054Z,53.65
2018-07-23T04:44:10.290Z,53.36
2018-07-23T04:46:39.446Z,53.00
2018-07-23T04:49:08.856Z,52.71
2018-07-23T04:51:38.062Z,52.83
2018-07-23T04:54:07.310Z,53.04
2018-07-23T04:56:36.589Z,53.42
2018-07-23T04:59:06.018Z,52.62
2018-07-23T05:01:35.329Z,52.42
2018-07-23T05:04:04.703Z,52.13
2018-07-23T05:06:33.909Z,52.02
2018-07-23T05:09:03.243Z,51.84
2018-07-23T05:11:32.525Z,51.44
2018-07-23T05:14:02.074Z,50.89
2018-07-23T05:16:31.309Z,50.57
2018-07-23T05:19:00.691Z,50.07
2018-07-23T05:21:30.132Z,49.83
2018-07-23T05:24:00.346Z,49.33
2018-07-23T05:26:29.846Z,49.60
2018-07-23T05:28:59.114Z,49.38
2018-07-23T05:31:28.593Z,49.03
2018-07-23T05:33:58.173Z,48.25
2018-07-23T05:36:27.674Z,48.11
2018-07-23T05:38:57.069Z,48.09
2018-07-23T05:41:27.744Z,47.63
2018-07-23T05:43:57.326Z,46.68
2018-07-23T05:46:26.702Z,46.54
2018-07-23T05:48:56.360Z,45.15
2018-07-23T05:51:25.610Z,44.21
2018-07-23T05:53:54.801Z,43.90
2018-07-23T05:56:23.976Z,42.79
2018-07-23T05:58:53.281Z,42.36
2018-07-23T06:01:22.557Z,42.20
2018-07-23T06:03:51.889Z,41.45
2018-07-23T06:06:21.388Z,41.59
2018-07-23T06:08:50.494Z,41.31
2018-07-23T06:11:19.974Z,41.66
2018-07-23T06:13:49.099Z,40.39
2018-07-23T06:16:18.427Z,37.12
2018-07-23T06:18:47.725Z,36.18
2018-07-23T06:21:17.130Z,35.74
2018-07-23T06:23:46.376Z,36.22
2018-07-23T06:26:15.620Z,37.40
2018-07-23T06:28:45.314Z,37.14
2018-07-23T06:31:14.990Z,36.23
2018-07-23T06:33:44.472Z,36.24
2018-07-23T06:36:14.491Z,35.92
2018-07-23T06:38:44.219Z,35.67
2018-07-23T06:41:13.815Z,35.64
2018-07-23T06:43:43.628Z,33.60
2018-07-23T06:46:13.291Z,34.24
2018-07-23T06:48:42.531Z,33.79
2018-07-23T06:51:11.922Z,32.09
2018-07-23T06:53:41.202Z,31.18
2018-07-23T06:56:10.566Z,30.66
2018-07-23T06:58:39.758Z,29.63
2018-07-23T07:01:09.006Z,29.30
2018-07-23T07:03:38.305Z,30.14
2018-07-23T07:06:08.399Z,28.95
2018-07-23T07:08:37.751Z,30.00
2018-07-23T07:11:06.960Z,29.30
2018-07-23T07:13:36.276Z,28.76
2018-07-23T07:16:05.610Z,29.50
2018-07-23T07:18:34.831Z,29.37
2018-07-23T07:21:04.152Z,29.35
2018-07-23T07:23:33.411Z,29.52
2018-07-23T07:26:02.859Z,28.86
2018-07-23T07:28:32.231Z,29.26
2018-07-23T07:31:01.517Z,28.41
2018-07-23T07:33:30.813Z,29.25
2018-07-23T07:36:00.031Z,28.49
2018-07-23T07:38:29.295Z,28.49
2018-07-23T07:40:58.737Z,29.01
2018-07-23T07:43:28.022Z,28.41
2018-07-23T07:45:57.382Z,29.65
2018-07-23T07:48:26.569Z,30.13
2018-07-23T07:50:56.042Z,29.60
2018-07-23T07:53:25.340Z,29.46
2018-07-23T07:55:54.530Z,30.41
2018-07-23T07:58:23.801Z,30.24
2018-07-23T08:00:53.042Z,28.50
2018-07-23T08:03:22.291Z,28.20
2018-07-23T08:05:51.550Z,28.74
2018-07-23T08:08:21.014Z,28.03
2018-07-23T08:10:50.239Z,27.30
2018-07-23T08:13:19.496Z,28.27
2018-07-23T08:15:48.761Z,27.08
2018-07-23T08:18:17.974Z,27.20
2018-07-23T08:20:47.344Z,25.89
2018-07-23T08:23:16.650Z,25.63
2018-07-23T08:25:46.046Z,24.95
2018-07-23T08:28:15.632Z,25.17
2018-07-23T08:30:44.918Z,25.20
2018-07-23T08:33:14.283Z,25.33
2018-07-23T08:35:43.602Z,24.45
2018-07-23T08:38:13.049Z,24.95
2018-07-23T08:40:42.434Z,24.72
2018-07-23T08:43:12.359Z,25.10
2018-07-23T08:45:41.651Z,25.40
2018-07-23T08:48:10.920Z,23.93
2018-07-23T08:50:39.846Z,24.46
2018-07-23T08:53:08.845Z,24.22
2018-07-23T08:55:37.825Z,22.85
2018-07-23T08:58:07.549Z,22.27
2018-07-23T09:00:36.482Z,23.22
2018-07-23T09:03:05.889Z,22.95
2018-07-23T09:05:35.243Z,22.96
2018-07-23T09:08:04.903Z,21.57
2018-07-23T09:10:34.134Z,22.98
2018-07-23T09:13:03.383Z,21.87
2018-07-23T09:15:32.641Z,22.48
2018-07-23T09:18:01.937Z,22.81
2018-07-23T09:20:31.153Z,25.04
2018-07-23T09:23:00.530Z,24.36
2018-07-23T09:25:34.714Z,21.93
2018-07-23T09:28:04.010Z,23.32
2018-07-23T09:30:38.217Z,23.67
2018-07-23T09:33:07.511Z,26.50
2018-07-23T09:35:36.699Z,25.37
2018-07-23T09:38:05.986Z,24.62
2018-07-23T09:40:35.295Z,24.08
2018-07-23T09:43:04.859Z,25.40
2018-07-23T09:45:34.133Z,27.33
2018-07-23T09:48:03.401Z,26.92
2018-07-23T09:50:32.674Z,25.82
2018-07-23T09:53:02.384Z,25.52
2018-07-23T09:55:31.585Z,25.55
2018-07-23T09:58:00.833Z,26.03
2018-07-23T10:00:35.222Z,25.68
2018-07-23T10:03:04.473Z,26.41
2018-07-23T10:05:33.715Z,25.14
2018-07-23T10:08:03.053Z,24.25
2018-07-23T10:10:32.410Z,21.73
2018-07-23T10:13:01.696Z,20.48
2018-07-23T10:15:30.915Z,19.16
2018-07-23T10:18:03.255Z,18.57
2018-07-23T10:20:32.705Z,19.31
2018-07-23T10:23:02.024Z,19.29
2018-07-23T10:25:31.263Z,17.81
2018-07-23T10:28:00.618Z,18.00
2018-07-23T10:30:29.858Z,18.06
2018-07-23T10:32:59.124Z,17.48
2018-07-23T10:35:28.290Z,18.07
2018-07-23T10:37:57.737Z,18.07
2018-07-23T10:40:26.958Z,17.77
2018-07-23T10:42:56.614Z,17.05
2018-07-23T10:45:25.853Z,15.93
2018-07-23T10:47:55.132Z,17.02
2018-07-23T10:50:24.755Z,18.29
2018-07-23T10:52:54.101Z,20.48
2018-07-23T10:55:23.426Z,18.84
2018-07-23T10:57:53.035Z,18.32
2018-07-23T11:00:22.410Z,19.47
2018-07-23T11:02:51.743Z,18.07
2018-07-23T11:05:22.089Z,18.93
2018-07-23T11:07:51.217Z,20.29
2018-07-23T11:10:20.470Z,20.67
2018-07-23T11:12:49.639Z,20.63
2018-07-23T11:15:18.733Z,19.08
2018-07-23T11:17:47.876Z,19.54
2018-07-23T11:20:16.994Z,20.40
2018-07-23T11:22:46.099Z,21.78
2018-07-23T11:25:38.503Z,21.25
2018-07-23T11:27:45.020Z,19.92
2018-07-23T11:30:14.557Z,19.75
2018-07-23T11:32:43.868Z,19.27
2018-07-23T11:35:13.243Z,19.22
2018-07-23T11:37:42.563Z,18.70
2018-07-23T11:40:11.944Z,19.37
2018-07-23T11:42:41.387Z,20.08
2018-07-23T11:45:10.715Z,21.32
2018-07-23T11:47:39.997Z,20.77
2018-07-23T11:50:09.404Z,19.39
2018-07-23T11:52:38.682Z,18.85
2018-07-23T11:55:07.928Z,18.29
2018-07-23T11:57:37.382Z,18.61
2018-07-23T12:00:06.659Z,18.48
2018-07-23T12:02:36.090Z,17.02
2018-07-23T12:05:05.250Z,18.08
2018-07-23T12:07:34.498Z,17.95
2018-07-23T12:10:03.743Z,19.26
2018-07-23T12:12:32.882Z,18.96
2018-07-23T12:15:02.182Z,19.23
2018-07-23T12:17:31.587Z,18.95
2018-07-23T12:20:00.843Z,19.61
2018-07-23T12:22:30.499Z,18.81
2018-07-23T12:24:59.798Z,18.31
2018-07-23T12:27:29.102Z,18.50
2018-07-23T12:29:58.258Z,19.99
2018-07-23T12:32:27.518Z,19.31
2018-07-23T12:34:56.899Z,19.46
2018-07-23T12:37:26.174Z,19.32
2018-07-23T12:39:55.517Z,19.09
2018-07-23T12:42:24.865Z,19.15
2018-07-23T12:44:54.082Z,19.04
2018-07-23T12:47:23.402Z,17.78
2018-07-23T12:49:52.714Z,16.88
2018-07-23T12:52:22.053Z,17.30
2018-07-23T12:54:51.413Z,17.33
2018-07-23T12:57:20.662Z,17.25
2018-07-23T12:59:49.901Z,16.78
2018-07-23T13:02:19.272Z,17.78
2018-07-23T13:04:48.505Z,17.64
2018-07-23T13:07:17.749Z,18.22
2018-07-23T13:09:47.401Z,18.46
2018-07-23T13:12:16.693Z,17.23
2018-07-23T13:14:45.992Z,17.07
2018-07-23T13:17:15.390Z,17.93
2018-07-23T13:19:44.753Z,18.92
2018-07-23T13:22:14.018Z,18.87
2018-07-23T13:24:43.342Z,18.56
2018-07-23T13:27:12.767Z,17.60
2018-07-23T13:29:42.006Z,17.66
2018-07-23T13:32:11.746Z,17.24
2018-07-23T13:34:41.022Z,17.16
2018-07-23T13:37:10.703Z,16.32
2018-07-23T13:39:39.985Z,16.96
2018-07-23T13:42:09.200Z,16.39
2018-07-23T13:44:38.346Z,16.04
2018-07-23T13:47:07.762Z,16.34
2018-07-23T13:49:37.161Z,16.46
2018-07-23T13:52:06.410Z,16.83
2018-07-23T13:54:35.669Z,16.17
2018-07-23T13:57:05.029Z,16.40
2018-07-23T13:59:34.467Z,17.00
2018-07-23T14:02:03.751Z,16.54
2018-07-23T14:04:33.031Z,17.32
2018-07-23T14:07:02.209Z,16.92
2018-07-23T14:09:31.470Z,17.02
2018-07-23T14:12:00.716Z,16.77
2018-07-23T14:14:29.946Z,16.88
2018-07-23T14:16:59.294Z,17.32
2018-07-23T14:19:28.545Z,17.39
2018-07-23T14:21:57.820Z,17.22
2018-07-23T14:24:27.170Z,17.08
2018-07-23T14:26:56.465Z,16.93
2018-07-23T14:29:25.846Z,18.00
2018-07-23T14:31:55.140Z,17.54
2018-07-23T14:34:24.700Z,16.80
2018-07-23T14:36:53.956Z,17.57
2018-07-23T14:39:23.286Z,18.32
2018-07-23T14:41:52.662Z,19.27
2018-07-23T14:44:22.064Z,19.52
2018-07-23T14:46:51.420Z,19.26
2018-07-23T14:49:20.790Z,19.82
2018-07-23T14:51:50.034Z,18.97
2018-07-23T14:54:19.462Z,18.41
2018-07-23T14:56:48.610Z,18.91
2018-07-23T14:59:18.083Z,19.28
2018-07-23T15:01:47.351Z,19.28
2018-07-23T15:04:16.784Z,18.97
2018-07-23T15:06:46.178Z,18.61
2018-07-23T15:09:15.490Z,18.98
2018-07-23T15:11:44.770Z,19.02
2018-07-23T15:14:14.073Z,19.03
2018-07-23T15:16:43.224Z,19.41
2018-07-23T15:19:12.591Z,19.21
2018-07-23T15:21:41.862Z,19.08
2018-07-23T15:24:11.114Z,19.44
2018-07-23T15:26:40.372Z,19.90
2018-07-23T15:29:09.690Z,19.44
2018-07-23T15:31:38.981Z,19.94
2018-07-23T15:34:08.159Z,20.18
2018-07-23T15:36:37.421Z,20.38
2018-07-23T15:39:08.881Z,20.82
2018-07-23T15:41:38.342Z,21.31
2018-07-23T15:44:07.832Z,21.24
2018-07-23T15:46:36.986Z,21.73
2018-07-23T15:49:06.460Z,21.36
2018-07-23T15:51:35.699Z,22.37
2018-07-23T15:54:04.944Z,22.22
2018-07-23T15:56:34.225Z,21.94
2018-07-23T15:59:03.593Z,22.81
2018-07-23T16:01:32.905Z,22.96
2018-07-23T16:04:02.263Z,22.94
2018-07-23T16:06:31.670Z,23.11
2018-07-23T16:09:00.925Z,23.26
2018-07-23T16:11:30.245Z,23.09
2018-07-23T16:13:59.611Z,23.13
2018-07-23T16:16:28.936Z,22.86
2018-07-23T16:18:58.288Z,22.17
2018-07-23T16:21:27.585Z,22.11
2018-07-23T16:23:56.851Z,22.04
2018-07-23T16:26:26.272Z,22.58
2018-07-23T16:28:55.560Z,21.97
2018-07-23T16:31:24.845Z,22.68
2018-07-23T16:33:54.113Z,21.75
2018-07-23T16:36:23.443Z,22.17
2018-07-23T16:38:52.639Z,21.80
2018-07-23T16:41:21.870Z,21.39
2018-07-23T16:43:51.159Z,21.99
2018-07-23T16:46:20.510Z,21.81
2018-07-23T16:48:49.809Z,21.55
2018-07-23T16:51:19.063Z,21.51
2018-07-23T16:53:48.270Z,21.37
2018-07-23T16:56:17.530Z,21.43
2018-07-23T16:58:46.748Z,21.92
2018-07-23T17:01:16.156Z,21.80
2018-07-23T17:03:45.361Z,22.39
2018-07-23T17:06:14.796Z,22.42
2018-07-23T17:08:44.059Z,22.26
2018-07-23T17:11:13.458Z,22.88
2018-07-23T17:13:42.759Z,22.91
2018-07-23T17:16:12.320Z,22.64
2018-07-23T17:18:41.548Z,21.90
2018-07-23T17:21:11.359Z,22.25
2018-07-23T17:23:40.772Z,22.14
2018-07-23T17:26:10.012Z,21.99
2018-07-23T17:28:39.330Z,22.94
2018-07-23T17:31:09.138Z,22.52
2018-07-23T17:33:38.473Z,22.53
2018-07-23T17:36:07.837Z,22.58
2018-07-23T17:38:37.071Z,22.71
2018-07-23T17:41:06.322Z,23.28
2018-07-23T17:43:36.040Z,22.93
2018-07-23T17:46:05.317Z,22.99
2018-07-23T17:48:34.606Z,22.88
2018-07-23T17:51:04.004Z,22.60
2018-07-23T17:53:33.263Z,22.69
2018-07-23T17:56:02.922Z,23.37
2018-07-23T17:58:32.330Z,23.74
2018-07-23T18:01:01.689Z,23.92
2018-07-23T18:03:31.129Z,23.63
2018-07-23T18:06:00.542Z,23.88
2018-07-23T18:08:30.007Z,24.08
2018-07-23T18:10:59.341Z,23.74
2018-07-23T18:13:28.738Z,23.89
2018-07-23T18:15:58.845Z,23.78
2018-07-23T18:18:28.301Z,24.58
2018-07-23T18:20:58.037Z,24.01
2018-07-23T18:23:27.553Z,24.45
2018-07-23T18:25:56.991Z,24.32
2018-07-23T18:28:26.492Z,24.72
2018-07-23T18:30:55.825Z,24.75
2018-07-23T18:33:25.057Z,25.25
2018-07-23T18:35:54.484Z,25.05
2018-07-23T18:38:23.853Z,24.88
2018-07-23T18:40:53.147Z,25.55
2018-07-23T18:43:22.502Z,25.42
2018-07-23T18:45:51.781Z,26.06
2018-07-23T18:49:31.763Z,25.85
2018-07-23T18:52:01.080Z,25.51
2018-07-23T18:54:31.411Z,25.59
2018-07-23T18:57:01.870Z,26.15
2018-07-23T18:59:31.238Z,26.43
2018-07-23T19:02:01.384Z,26.44
2018-07-23T19:04:30.521Z,26.53
2018-07-23T19:06:59.949Z,26.77
2018-07-23T19:09:29.856Z,27.07
2018-07-23T19:11:59.725Z,27.33
2018-07-23T19:14:29.165Z,27.28
2018-07-23T19:16:59.339Z,27.63
2018-07-23T19:19:28.636Z,26.94
2018-07-23T19:21:57.898Z,28.25
2018-07-23T19:24:27.050Z,27.68
2018-07-23T19:26:56.386Z,28.11
2018-07-23T19:29:25.672Z,28.45
2018-07-23T19:31:54.995Z,28.47
2018-07-23T19:34:24.255Z,28.70
2018-07-23T19:36:53.510Z,29.34
2018-07-23T19:39:22.893Z,29.58
2018-07-23T19:41:52.234Z,30.05
2018-07-23T19:44:21.492Z,30.41
2018-07-23T19:46:50.890Z,31.71
2018-07-23T19:49:20.066Z,32.01
2018-07-23T19:51:49.297Z,32.27
2018-07-23T19:54:18.585Z,31.29
2018-07-23T19:56:47.702Z,31.37
2018-07-23T19:59:16.999Z,32.01
2018-07-23T20:01:46.391Z,32.58
2018-07-23T20:04:15.637Z,32.70
2018-07-23T20:06:45.041Z,31.93
2018-07-23T20:09:14.300Z,31.87
2018-07-23T20:11:43.570Z,31.73
2018-07-23T20:14:12.838Z,31.37
2018-07-23T20:16:42.190Z,31.12
2018-07-23T20:19:11.558Z,30.95
2018-07-23T20:21:40.943Z,31.50
2018-07-23T20:24:10.058Z,31.17
2018-07-23T20:26:39.281Z,31.54
2018-07-23T20:29:08.790Z,31.63
2018-07-23T20:31:38.109Z,31.70
2018-07-23T20:34:07.370Z,31.82
2018-07-23T20:36:36.845Z,32.70
2018-07-23T20:39:07.847Z,33.31
2018-07-23T20:41:37.146Z,33.38
2018-07-23T20:44:06.409Z,32.59
2018-07-23T20:46:35.622Z,33.70
2018-07-23T20:49:04.847Z,33.76
2018-07-23T20:51:34.517Z,33.58
2018-07-23T20:54:03.737Z,34.38
2018-07-23T20:56:33.078Z,34.52
2018-07-23T20:59:02.077Z,34.43
2018-07-23T21:01:31.022Z,34.85
2018-07-23T21:04:00.355Z,36.08
2018-07-23T21:06:29.347Z,35.86
2018-07-23T21:08:58.258Z,35.49
2018-07-23T21:11:27.210Z,36.14
2018-07-23T21:13:56.489Z,35.94
2018-07-23T21:16:25.730Z,35.55
2018-07-23T21:18:55.422Z,35.78
2018-07-23T21:21:24.742Z,35.91
2018-07-23T21:23:54.117Z,35.43
2018-07-23T21:26:23.597Z,35.91
2018-07-23T21:28:52.950Z,36.28
2018-07-23T21:31:22.640Z,36.49
2018-07-23T21:33:52.057Z,36.18
2018-07-23T21:36:21.338Z,36.18
2018-07-23T21:38:50.645Z,35.60
2018-07-23T21:41:19.905Z,36.60
2018-07-23T21:43:49.157Z,36.30
2018-07-23T21:46:18.423Z,36.22
2018-07-23T21:48:48.045Z,36.77
2018-07-23T21:51:17.353Z,36.13
2018-07-23T21:53:46.682Z,36.90
2018-07-23T21:56:15.940Z,36.99
2018-07-23T21:58:45.137Z,37.02
2018-07-23T22:01:14.298Z,37.06
2018-07-23T22:03:43.550Z,36.69
2018-07-23T22:06:12.905Z,37.12
2018-07-23T22:08:42.142Z,38.46
2018-07-23T22:11:11.447Z,38.83
2018-07-23T22:13:40.751Z,38.83
2018-07-23T22:16:10.110Z,39.02
2018-07-23T22:18:39.353Z,38.68
2018-07-23T22:21:09.280Z,38.73
2018-07-23T22:23:38.591Z,38.38
2018-07-23T22:26:07.937Z,38.33
2018-07-23T22:28:37.374Z,38.46
2018-07-23T22:31:06.618Z,37.89
2018-07-23T22:33:35.981Z,38.29
2018-07-23T22:36:05.252Z,38.34
2018-07-23T22:38:34.482Z,38.33
2018-07-23T22:41:03.818Z,38.24
2018-07-23T22:43:33.274Z,37.94
2018-07-23T22:46:02.434Z,38.06
2018-07-23T22:48:31.830Z,38.78
2018-07-23T22:51:01.039Z,38.92
2018-07-23T22:53:30.261Z,39.10
2018-07-23T22:55:59.625Z,39.29
2018-07-23T22:58:28.858Z,39.54
2018-07-23T23:00:58.015Z,39.57
2018-07-23T23:03:27.281Z,39.71
2018-07-23T23:05:56.538Z,39.59
2018-07-23T23:08:25.765Z,39.55
2018-07-23T23:10:55.019Z,39.20
2018-07-23T23:13:24.362Z,39.58
2018-07-23T23:15:53.522Z,39.55
2018-07-23T23:18:22.845Z,38.95
2018-07-23T23:20:52.179Z,39.87
2018-07-23T23:23:21.501Z,39.71
2018-07-23T23:25:50.846Z,39.50
2018-07-23T23:28:20.050Z,40.28
2018-07-23T23:30:49.274Z,40.50
2018-07-23T23:33:18.523Z,40.07
2018-07-23T23:35:48.183Z,40.84
2018-07-23T23:38:17.481Z,40.52
2018-07-23T23:40:46.814Z,40.15
2018-07-23T23:43:16.154Z,40.54
2018-07-23T23:45:45.397Z,40.70
2018-07-23T23:48:14.773Z,40.69
2018-07-23T23:50:44.009Z,41.55
2018-07-23T23:53:13.377Z,40.91
2018-07-23T23:55:42.701Z,41.66
2018-07-23T23:58:11.952Z,42.15
